createdAt,value
2022-08-07T00:00:24.800Z,0
2022-08-07T00:02:50.301Z,0
2022-08-07T00:03:14.785Z,0
2022-08-07T00:04:16.658Z,0
2022-08-07T00:05:15.933Z,0
2022-08-07T00:06:16.120Z,0
2022-08-07T00:07:22.064Z,0
2022-08-07T00:08:26.542Z,0
2022-08-07T00:09:44.499Z,0
2022-08-07T00:11:03.531Z,0
2022-08-07T00:12:04.323Z,0
2022-08-07T00:12:43.758Z,0
2022-08-07T00:13:45.931Z,0
2022-08-07T00:14:41.489Z,0
2022-08-07T00:15:56.903Z,0
2022-08-07T00:16:40.449Z,0
2022-08-07T00:17:46.939Z,0
2022-08-07T00:18:41.097Z,0
2022-08-07T00:20:35.559Z,0
2022-08-07T00:20:54.753Z,0
2022-08-07T00:22:35.466Z,0
2022-08-07T00:23:07.391Z,0
2022-08-07T00:24:03.289Z,0
2022-08-07T00:25:05.087Z,0
2022-08-07T00:27:06.821Z,0
2022-08-07T00:27:36.019Z,0
2022-08-07T00:28:41.788Z,0
2022-08-07T00:29:45.314Z,0
2022-08-07T00:30:46.302Z,0
2022-08-07T00:31:56.399Z,0
2022-08-07T00:32:46.568Z,0
2022-08-07T00:33:47.382Z,0
2022-08-07T00:34:47.269Z,0
2022-08-07T00:35:55.239Z,0
2022-08-07T00:36:49.840Z,0
2022-08-07T00:38:00.080Z,0
2022-08-07T00:38:50.466Z,0
2022-08-07T00:40:01.768Z,0
2022-08-07T00:40:52.247Z,0
2022-08-07T00:42:10.909Z,0
2022-08-07T00:42:57.883Z,0
2022-08-07T00:44:15.086Z,0
2022-08-07T00:44:56.416Z,0
2022-08-07T00:45:59.235Z,0
2022-08-07T00:46:56.687Z,0
2022-08-07T00:48:25.034Z,0
2022-08-07T00:48:57.888Z,0
2022-08-07T00:51:06.354Z,0
2022-08-07T00:52:17.532Z,0
2022-08-07T00:53:04.363Z,0
2022-08-07T00:54:07.248Z,0
2022-08-07T00:55:17.371Z,0
2022-08-07T00:56:30.108Z,0
2022-08-07T00:57:28.091Z,0
2022-08-07T00:58:27.570Z,0
2022-08-07T00:59:41.418Z,0
2022-08-07T01:00:31.119Z,0
2022-08-07T01:01:29.628Z,0
2022-08-07T01:02:45.075Z,0
2022-08-07T01:04:06.199Z,0
2022-08-07T01:04:44.025Z,0
2022-08-07T01:05:43.591Z,0
2022-08-07T01:06:38.022Z,0
2022-08-07T01:07:39.418Z,0
2022-08-07T01:08:38.863Z,0
2022-08-07T01:10:18.266Z,0
2022-08-07T01:10:40.103Z,0
2022-08-07T01:12:53.618Z,0
2022-08-07T01:14:01.725Z,0
2022-08-07T01:14:56.923Z,0
2022-08-07T01:16:15.992Z,0
2022-08-07T01:16:53.323Z,0
2022-08-07T01:17:51.162Z,0
2022-08-07T01:18:52.400Z,0
2022-08-07T01:20:00.611Z,0
2022-08-07T01:21:05.103Z,0
2022-08-07T01:21:53.103Z,0
2022-08-07T01:23:18.886Z,0
2022-08-07T01:23:58.379Z,0
2022-08-07T01:24:58.891Z,0
2022-08-07T01:26:07.481Z,0
2022-08-07T01:27:03.626Z,0
2022-08-07T01:28:05.507Z,0
2022-08-07T01:28:59.264Z,0
2022-08-07T01:29:58.664Z,0
2022-08-07T01:31:02.927Z,0
2022-08-07T01:32:00.152Z,0
2022-08-07T01:33:00.077Z,0
2022-08-07T01:34:09.933Z,0
2022-08-07T01:35:02.960Z,0
2022-08-07T01:36:16.758Z,0
2022-08-07T01:37:09.837Z,0
2022-08-07T01:38:04.162Z,0
2022-08-07T01:39:09.752Z,0
2022-08-07T01:40:06.260Z,0
2022-08-07T01:41:04.787Z,0
2022-08-07T01:43:04.248Z,0
2022-08-07T01:43:53.869Z,0
2022-08-07T01:44:59.103Z,0
2022-08-07T01:46:00.239Z,0
2022-08-07T01:46:55.905Z,0
2022-08-07T01:48:47.560Z,0
2022-08-07T01:49:37.802Z,0
2022-08-07T01:50:42.936Z,0
2022-08-07T01:52:15.885Z,0
2022-08-07T01:52:38.459Z,0
2022-08-07T01:54:42.639Z,0
2022-08-07T01:55:39.601Z,0
2022-08-07T01:56:49.233Z,0
2022-08-07T01:58:26.896Z,0
2022-08-07T01:58:53.078Z,0
2022-08-07T01:59:50.659Z,0
2022-08-07T02:00:57.935Z,0
2022-08-07T02:03:12.661Z,0
2022-08-07T02:04:02.581Z,0
2022-08-07T02:05:15.910Z,0
2022-08-07T02:06:37.772Z,0
2022-08-07T02:07:55.682Z,0
2022-08-07T02:08:30.665Z,0
2022-08-07T02:10:04.448Z,0
2022-08-07T02:10:31.099Z,0
2022-08-07T02:12:14.310Z,0
2022-08-07T02:12:43.092Z,0
2022-08-07T02:14:10.278Z,0
2022-08-07T02:14:55.297Z,0
2022-08-07T02:15:58.739Z,0
2022-08-07T02:16:55.559Z,0
2022-08-07T02:18:02.187Z,0
2022-08-07T02:18:58.517Z,0
2022-08-07T02:20:30.405Z,0
2022-08-07T02:21:22.035Z,0
2022-08-07T02:22:25.700Z,0
2022-08-07T02:23:25.505Z,0
2022-08-07T02:24:23.826Z,0
2022-08-07T02:25:32.304Z,0
2022-08-07T02:26:48.657Z,0
2022-08-07T02:27:58.524Z,0
2022-08-07T02:28:53.902Z,0
2022-08-07T02:30:12.859Z,0
2022-08-07T02:30:54.814Z,0
2022-08-07T02:32:00.474Z,0
2022-08-07T02:33:23.936Z,0
2022-08-07T02:34:23.866Z,0
2022-08-07T02:36:27.689Z,0
2022-08-07T02:36:51.487Z,0
2022-08-07T02:37:56.179Z,0
2022-08-07T02:39:02.200Z,0
2022-08-07T02:40:55.560Z,0
2022-08-07T02:42:00.486Z,0
2022-08-07T02:42:48.605Z,0
2022-08-07T02:43:54.829Z,0
2022-08-07T02:44:58.513Z,0
2022-08-07T02:46:13.062Z,0
2022-08-07T02:47:19.375Z,0
2022-08-07T02:48:23.127Z,0
2022-08-07T02:50:04.712Z,0
2022-08-07T02:50:24.413Z,0
2022-08-07T02:52:03.720Z,0
2022-08-07T02:53:11.903Z,0
2022-08-07T02:54:03.393Z,0
2022-08-07T02:55:03.984Z,0
2022-08-07T02:56:27.937Z,0
2022-08-07T02:57:03.661Z,0
2022-08-07T02:58:05.123Z,0
2022-08-07T02:59:05.749Z,0
2022-08-07T03:00:18.205Z,0
2022-08-07T03:01:10.310Z,0
2022-08-07T03:02:27.690Z,0
2022-08-07T03:03:29.558Z,0
2022-08-07T03:04:25.480Z,0
2022-08-07T03:05:43.015Z,0
2022-08-07T03:06:40.154Z,0
2022-08-07T03:08:15.597Z,0
2022-08-07T03:08:40.502Z,0
2022-08-07T03:09:58.768Z,0
2022-08-07T03:10:52.717Z,0
2022-08-07T03:12:08.178Z,0
2022-08-07T03:13:25.033Z,0
2022-08-07T03:14:22.435Z,0
2022-08-07T03:16:04.110Z,0
2022-08-07T03:16:33.142Z,0
2022-08-07T03:17:22.391Z,0
2022-08-07T03:18:41.648Z,0
2022-08-07T03:19:28.815Z,0
2022-08-07T03:20:24.189Z,0
2022-08-07T03:21:32.916Z,0
2022-08-07T03:22:36.774Z,0
2022-08-07T03:24:41.813Z,0
2022-08-07T03:25:47.075Z,0
2022-08-07T03:26:35.079Z,0
2022-08-07T03:28:43.767Z,0
2022-08-07T03:29:03.318Z,0
2022-08-07T03:30:05.095Z,0
2022-08-07T03:31:13.974Z,0
2022-08-07T03:32:06.928Z,0
2022-08-07T03:33:15.203Z,0
2022-08-07T03:34:09.069Z,0
2022-08-07T03:35:55.990Z,0
2022-08-07T03:36:38.161Z,0
2022-08-07T03:38:00.448Z,0
2022-08-07T03:38:41.108Z,0
2022-08-07T03:40:22.739Z,4
2022-08-07T03:40:59.388Z,4
2022-08-07T03:41:58.711Z,0
2022-08-07T03:42:49.432Z,0
2022-08-07T03:44:03.786Z,0
2022-08-07T03:45:03.613Z,4
2022-08-07T03:46:00.267Z,0
2022-08-07T03:47:29.483Z,0
2022-08-07T03:48:04.377Z,4
2022-08-07T03:49:16.684Z,4
2022-08-07T03:50:05.535Z,4
2022-08-07T03:51:10.240Z,4
2022-08-07T03:52:32.447Z,4
2022-08-07T03:53:12.273Z,4
2022-08-07T03:55:11.381Z,8
2022-08-07T03:56:09.718Z,8
2022-08-07T03:59:15.878Z,12
2022-08-07T03:59:33.505Z,8
2022-08-07T04:01:01.361Z,12
2022-08-07T04:01:37.571Z,12
2022-08-07T04:02:41.237Z,16
2022-08-07T04:04:00.722Z,16
2022-08-07T04:04:38.435Z,16
2022-08-07T04:05:52.182Z,20
2022-08-07T04:06:51.072Z,24
2022-08-07T04:07:53.463Z,28
2022-08-07T04:08:45.657Z,24
2022-08-07T04:09:56.131Z,28
2022-08-07T04:12:35.128Z,32
2022-08-07T04:12:53.188Z,36
2022-08-07T04:14:53.141Z,40
2022-08-07T04:15:12.059Z,36
2022-08-07T04:16:16.207Z,44
2022-08-07T04:17:45.681Z,44
2022-08-07T04:19:34.197Z,48
2022-08-07T04:20:13.602Z,52
2022-08-07T04:21:21.793Z,56
2022-08-07T04:22:27.705Z,56
2022-08-07T04:23:25.213Z,56
2022-08-07T04:24:46.513Z,64
2022-08-07T04:25:29.104Z,64
2022-08-07T04:26:30.234Z,72
2022-08-07T04:27:59.057Z,72
2022-08-07T04:28:27.603Z,68
2022-08-07T04:29:22.276Z,68
2022-08-07T04:31:04.492Z,72
2022-08-07T04:32:27.354Z,68
2022-08-07T04:33:30.559Z,72
2022-08-07T04:34:39.407Z,72
2022-08-07T04:35:35.025Z,76
2022-08-07T04:36:35.106Z,84
2022-08-07T04:38:01.246Z,92
2022-08-07T04:38:27.886Z,96
2022-08-07T04:39:35.745Z,96
2022-08-07T04:40:43.997Z,100
2022-08-07T04:41:36.928Z,100
2022-08-07T04:42:41.616Z,100
2022-08-07T04:44:30.339Z,100
2022-08-07T04:45:14.087Z,100
2022-08-07T04:46:35.879Z,100
2022-08-07T04:48:16.308Z,100
2022-08-07T04:48:37.810Z,100
2022-08-07T04:49:47.302Z,108
2022-08-07T04:50:36.028Z,108
2022-08-07T04:51:38.688Z,112
2022-08-07T04:52:46.900Z,116
2022-08-07T04:54:22.850Z,120
2022-08-07T05:00:24.210Z,132
2022-08-07T05:01:30.015Z,128
2022-08-07T05:02:31.905Z,132
2022-08-07T05:04:22.739Z,124
2022-08-07T05:04:55.924Z,120
2022-08-07T05:06:28.062Z,112
2022-08-07T05:07:09.738Z,112
2022-08-07T05:08:01.218Z,112
2022-08-07T05:09:14.244Z,108
2022-08-07T05:09:58.214Z,112
2022-08-07T05:11:08.091Z,116
2022-08-07T05:12:10.738Z,108
2022-08-07T05:15:21.908Z,108
2022-08-07T05:16:16.986Z,108
2022-08-07T05:18:01.489Z,120
2022-08-07T05:18:26.881Z,120
2022-08-07T05:19:50.426Z,124
2022-08-07T05:20:28.571Z,124
2022-08-07T05:22:26.890Z,144
2022-08-07T05:22:46.492Z,148
2022-08-07T05:23:47.522Z,164
2022-08-07T05:24:56.327Z,172
2022-08-07T05:26:30.134Z,192
2022-08-07T05:28:40.438Z,212
2022-08-07T05:29:57.597Z,216
2022-08-07T05:30:47.901Z,220
2022-08-07T05:31:52.895Z,236
2022-08-07T05:32:39.923Z,248
2022-08-07T05:33:42.835Z,260
2022-08-07T05:34:39.892Z,260
2022-08-07T05:35:55.126Z,264
2022-08-07T05:36:48.918Z,268
2022-08-07T05:38:08.492Z,268
2022-08-07T05:40:34.297Z,288
2022-08-07T05:42:14.324Z,304
2022-08-07T05:43:02.060Z,308
2022-08-07T05:44:29.056Z,312
2022-08-07T05:45:25.896Z,308
2022-08-07T05:46:07.666Z,312
2022-08-07T05:47:37.992Z,312
2022-08-07T05:48:19.817Z,304
2022-08-07T05:49:24.737Z,292
2022-08-07T05:50:20.936Z,292
2022-08-07T05:51:21.858Z,288
2022-08-07T05:52:38.028Z,272
2022-08-07T05:55:07.337Z,252
2022-08-07T05:56:07.352Z,252
2022-08-07T05:56:37.898Z,252
2022-08-07T05:57:37.844Z,256
2022-08-07T05:58:49.141Z,260
2022-08-07T05:59:28.436Z,268
2022-08-07T06:00:29.330Z,272
2022-08-07T06:01:35.002Z,280
2022-08-07T06:02:41.716Z,276
2022-08-07T06:04:06.485Z,296
2022-08-07T06:04:37.370Z,304
2022-08-07T06:05:40.489Z,320
2022-08-07T06:06:38.356Z,316
2022-08-07T06:08:42.328Z,332
2022-08-07T06:09:10.598Z,340
2022-08-07T06:10:21.458Z,360
2022-08-07T06:11:09.574Z,368
2022-08-07T06:12:05.190Z,368
2022-08-07T06:13:13.284Z,368
2022-08-07T06:14:35.541Z,408
2022-08-07T06:15:38.480Z,424
2022-08-07T06:16:10.134Z,444
2022-08-07T06:17:13.308Z,452
2022-08-07T06:18:09.666Z,448
2022-08-07T06:19:17.767Z,424
2022-08-07T06:22:12.302Z,356
2022-08-07T06:22:50.702Z,328
2022-08-07T06:25:11.333Z,364
2022-08-07T06:26:08.733Z,392
2022-08-07T06:27:10.583Z,424
2022-08-07T06:28:19.227Z,444
2022-08-07T06:29:13.507Z,448
2022-08-07T06:30:50.658Z,436
2022-08-07T06:31:14.948Z,432
2022-08-07T06:32:18.958Z,404
2022-08-07T06:33:22.626Z,380
2022-08-07T06:34:19.774Z,348
2022-08-07T06:36:06.941Z,328
2022-08-07T06:37:52.928Z,320
2022-08-07T06:38:36.611Z,320
2022-08-07T06:40:45.855Z,336
2022-08-07T06:41:06.766Z,336
2022-08-07T06:42:15.207Z,348
2022-08-07T06:43:21.096Z,352
2022-08-07T06:44:16.648Z,356
2022-08-07T06:45:11.204Z,352
2022-08-07T06:46:20.497Z,344
2022-08-07T06:47:27.047Z,336
2022-08-07T06:48:41.930Z,320
2022-08-07T06:50:04.093Z,312
2022-08-07T06:50:43.179Z,312
2022-08-07T06:51:59.470Z,324
2022-08-07T06:52:58.167Z,332
2022-08-07T06:56:09.360Z,344
2022-08-07T06:56:33.883Z,332
2022-08-07T06:58:02.352Z,328
2022-08-07T06:58:40.978Z,336
2022-08-07T07:00:32.827Z,360
2022-08-07T07:01:50.790Z,360
2022-08-07T07:03:08.968Z,364
2022-08-07T07:04:37.326Z,372
2022-08-07T07:05:08.586Z,372
2022-08-07T07:06:32.455Z,364
2022-08-07T07:08:18.392Z,384
2022-08-07T07:08:52.248Z,384
2022-08-07T07:09:52.507Z,384
2022-08-07T07:11:13.335Z,348
2022-08-07T07:12:55.887Z,356
2022-08-07T07:14:19.461Z,368
2022-08-07T07:15:43.090Z,368
2022-08-07T07:16:17.999Z,368
2022-08-07T07:17:23.876Z,372
2022-08-07T07:18:19.212Z,368
2022-08-07T07:20:08.835Z,364
2022-08-07T07:20:27.839Z,364
2022-08-07T07:22:51.011Z,372
2022-08-07T07:24:33.249Z,412
2022-08-07T07:26:57.814Z,444
2022-08-07T07:30:09.574Z,424
2022-08-07T07:30:57.903Z,396
2022-08-07T07:31:59.371Z,368
2022-08-07T07:32:59.194Z,364
2022-08-07T07:34:09.586Z,336
2022-08-07T07:35:00.295Z,328
2022-08-07T07:36:22.941Z,348
2022-08-07T07:38:02.309Z,360
2022-08-07T07:38:23.229Z,376
2022-08-07T07:39:27.210Z,400
2022-08-07T07:40:31.858Z,424
2022-08-07T07:41:30.808Z,444
2022-08-07T07:43:47.495Z,476
2022-08-07T07:44:37.874Z,488
2022-08-07T07:47:23.149Z,472
2022-08-07T07:47:58.606Z,472
2022-08-07T07:48:51.499Z,476
2022-08-07T07:50:51.385Z,464
2022-08-07T07:52:10.853Z,472
2022-08-07T07:52:46.868Z,480
2022-08-07T07:53:59.211Z,480
2022-08-07T07:54:57.447Z,472
2022-08-07T07:56:12.966Z,460
2022-08-07T07:57:09.290Z,460
2022-08-07T07:58:11.078Z,460
2022-08-07T07:59:08.026Z,460
2022-08-07T08:00:15.112Z,476
2022-08-07T08:02:22.397Z,472
2022-08-07T08:04:17.359Z,456
2022-08-07T08:04:39.442Z,460
2022-08-07T08:06:02.469Z,452
2022-08-07T08:06:51.085Z,444
2022-08-07T08:08:42.671Z,420
2022-08-07T08:09:15.229Z,404
2022-08-07T08:10:43.830Z,368
2022-08-07T08:12:07.194Z,372
2022-08-07T08:13:10.271Z,400
2022-08-07T08:13:53.567Z,424
2022-08-07T08:14:41.995Z,456
2022-08-07T08:16:06.257Z,476
2022-08-07T08:16:31.319Z,472
2022-08-07T08:18:24.950Z,424
2022-08-07T08:20:48.931Z,388
2022-08-07T08:22:21.299Z,392
2022-08-07T08:23:20.612Z,424
2022-08-07T08:24:57.221Z,484
2022-08-07T08:26:06.775Z,528
2022-08-07T08:27:05.994Z,552
2022-08-07T08:28:09.863Z,548
2022-08-07T08:28:58.198Z,544
2022-08-07T08:30:11.414Z,552
2022-08-07T08:31:02.417Z,568
2022-08-07T08:32:48.503Z,592
2022-08-07T08:34:01.226Z,608
2022-08-07T08:34:50.313Z,616
2022-08-07T08:35:58.015Z,632
2022-08-07T08:36:56.314Z,616
2022-08-07T08:38:15.228Z,560
2022-08-07T08:38:52.706Z,528
2022-08-07T08:40:05.152Z,504
2022-08-07T08:40:52.868Z,512
2022-08-07T08:42:14.625Z,560
2022-08-07T08:42:57.810Z,588
2022-08-07T08:44:12.823Z,660
2022-08-07T08:45:19.323Z,704
2022-08-07T08:46:14.694Z,724
2022-08-07T08:47:17.288Z,732
2022-08-07T08:48:16.802Z,728
2022-08-07T08:49:18.452Z,716
2022-08-07T08:50:40.489Z,692
2022-08-07T08:52:22.284Z,632
2022-08-07T08:53:00.367Z,600
2022-08-07T08:53:45.835Z,568
2022-08-07T08:54:47.697Z,540
2022-08-07T08:56:10.058Z,512
2022-08-07T08:56:53.227Z,508
2022-08-07T08:57:51.197Z,516
2022-08-07T08:58:50.506Z,532
2022-08-07T09:00:02.615Z,536
2022-08-07T09:00:58.332Z,528
2022-08-07T09:01:58.372Z,536
2022-08-07T09:02:58.044Z,548
2022-08-07T09:04:02.150Z,596
2022-08-07T09:04:56.571Z,632
2022-08-07T09:05:58.605Z,632
2022-08-07T09:06:58.917Z,624
2022-08-07T09:08:09.774Z,628
2022-08-07T09:08:59.806Z,624
2022-08-07T09:10:08.777Z,616
2022-08-07T09:11:00.758Z,616
2022-08-07T09:12:37.773Z,656
2022-08-07T09:13:08.337Z,664
2022-08-07T09:14:05.702Z,664
2022-08-07T09:16:36.110Z,736
2022-08-07T09:16:59.088Z,760
2022-08-07T09:18:23.491Z,844
2022-08-07T09:20:00.891Z,780
2022-08-07T09:21:06.350Z,728
2022-08-07T09:25:25.809Z,684
2022-08-07T09:26:22.611Z,672
2022-08-07T09:27:22.892Z,648
2022-08-07T09:30:15.264Z,640
2022-08-07T09:30:40.395Z,640
2022-08-07T09:31:55.512Z,676
2022-08-07T09:32:45.666Z,700
2022-08-07T09:34:09.844Z,660
2022-08-07T09:34:43.646Z,620
2022-08-07T09:36:17.345Z,564
2022-08-07T09:36:54.779Z,552
2022-08-07T09:38:16.508Z,508
2022-08-07T09:40:01.512Z,480
2022-08-07T09:40:25.240Z,480
2022-08-07T09:41:21.028Z,484
2022-08-07T09:42:39.379Z,500
2022-08-07T09:44:19.310Z,540
2022-08-07T09:49:02.534Z,672
2022-08-07T09:51:05.433Z,608
2022-08-07T09:52:48.543Z,544
2022-08-07T09:54:08.116Z,512
2022-08-07T09:54:48.437Z,508
2022-08-07T09:56:19.632Z,516
2022-08-07T09:56:52.929Z,524
2022-08-07T09:57:57.687Z,540
2022-08-07T09:58:56.524Z,544
2022-08-07T10:00:14.339Z,544
2022-08-07T10:00:57.054Z,540
2022-08-07T10:02:06.143Z,544
2022-08-07T10:04:17.464Z,548
2022-08-07T10:05:12.298Z,560
2022-08-07T10:06:24.244Z,576
2022-08-07T10:07:40.080Z,588
2022-08-07T10:08:15.007Z,584
2022-08-07T10:09:11.531Z,584
2022-08-07T10:10:28.247Z,604
2022-08-07T10:12:28.427Z,648
2022-08-07T10:12:59.392Z,660
2022-08-07T10:14:22.762Z,704
2022-08-07T10:15:24.238Z,732
2022-08-07T10:16:16.595Z,744
2022-08-07T10:17:33.851Z,752
2022-08-07T10:18:26.481Z,748
2022-08-07T10:19:22.972Z,748
2022-08-07T10:20:37.480Z,760
2022-08-07T10:22:25.013Z,792
2022-08-07T10:22:56.975Z,804
2022-08-07T10:24:27.128Z,824
2022-08-07T10:25:16.121Z,840
2022-08-07T10:26:17.729Z,888
2022-08-07T10:27:21.641Z,968
2022-08-07T10:28:18.311Z,1008
2022-08-07T10:29:21.646Z,1020
2022-08-07T10:30:25.102Z,996
2022-08-07T10:31:22.488Z,980
2022-08-07T10:33:05.624Z,960
2022-08-07T10:34:27.158Z,956
2022-08-07T10:34:53.448Z,948
2022-08-07T10:36:41.377Z,948
2022-08-07T10:38:54.424Z,904
2022-08-07T10:39:16.064Z,880
2022-08-07T10:40:20.913Z,836
2022-08-07T10:41:12.905Z,808
2022-08-07T10:42:42.414Z,784
2022-08-07T10:43:13.186Z,788
2022-08-07T10:44:28.589Z,800
2022-08-07T10:45:19.323Z,820
2022-08-07T10:46:14.827Z,860
2022-08-07T10:47:24.128Z,896
2022-08-07T10:48:21.055Z,932
2022-08-07T10:49:22.032Z,952
2022-08-07T10:50:26.152Z,948
2022-08-07T10:52:18.443Z,896
2022-08-07T10:52:56.467Z,892
2022-08-07T10:54:00.182Z,916
2022-08-07T10:55:27.193Z,1016
2022-08-07T10:55:55.454Z,1064
2022-08-07T10:56:58.746Z,1180
2022-08-07T10:58:07.255Z,1280
2022-08-07T10:59:05.917Z,1280
2022-08-07T10:59:59.312Z,1200
2022-08-07T11:01:17.974Z,1044
2022-08-07T11:02:40.017Z,940
2022-08-07T11:03:11.081Z,924
2022-08-07T11:04:43.017Z,936
2022-08-07T11:05:08.663Z,948
2022-08-07T11:06:10.188Z,972
2022-08-07T11:07:15.259Z,968
2022-08-07T11:08:46.424Z,956
2022-08-07T11:10:24.197Z,1004
2022-08-07T11:10:55.530Z,1036
2022-08-07T11:11:51.689Z,1092
2022-08-07T11:12:48.960Z,1128
2022-08-07T11:15:09.727Z,1220
2022-08-07T11:15:43.658Z,1276
2022-08-07T11:16:46.852Z,1360
2022-08-07T11:18:03.325Z,1440
2022-08-07T11:18:50.810Z,1512
2022-08-07T11:19:45.499Z,1644
2022-08-07T11:20:48.681Z,1748
2022-08-07T11:21:55.608Z,1864
2022-08-07T11:22:58.334Z,1876
2022-08-07T11:23:53.677Z,1708
2022-08-07T11:24:57.615Z,1444
2022-08-07T11:26:13.001Z,1212
2022-08-07T11:27:05.740Z,1096
2022-08-07T11:28:24.715Z,996
2022-08-07T11:29:01.085Z,984
2022-08-07T11:30:57.536Z,1068
2022-08-07T11:31:58.424Z,1168
2022-08-07T11:32:59.131Z,1216
2022-08-07T11:34:16.284Z,1200
2022-08-07T11:34:55.114Z,1176
2022-08-07T11:36:15.764Z,1104
2022-08-07T11:36:56.998Z,1068
2022-08-07T11:38:28.290Z,1040
2022-08-07T11:39:04.079Z,1044
2022-08-07T11:40:19.049Z,1060
2022-08-07T11:42:05.891Z,1020
2022-08-07T11:42:35.910Z,988
2022-08-07T11:44:24.159Z,880
2022-08-07T11:45:03.478Z,872
2022-08-07T11:45:59.246Z,880
2022-08-07T11:46:54.022Z,904
2022-08-07T11:48:29.335Z,900
2022-08-07T11:50:35.826Z,936
2022-08-07T11:51:22.914Z,984
2022-08-07T11:52:09.815Z,1096
2022-08-07T11:53:11.283Z,1220
2022-08-07T11:54:17.340Z,1324
2022-08-07T11:56:32.687Z,1352
2022-08-07T11:57:01.376Z,1356
2022-08-07T11:58:22.180Z,1344
2022-08-07T11:58:55.410Z,1324
2022-08-07T12:00:34.231Z,1144
2022-08-07T12:01:27.974Z,1064
2022-08-07T12:02:49.768Z,920
2022-08-07T12:03:58.444Z,776
2022-08-07T12:04:51.369Z,700
2022-08-07T12:06:36.755Z,604
2022-08-07T12:07:53.346Z,528
2022-08-07T12:08:40.456Z,520
2022-08-07T12:09:29.303Z,540
2022-08-07T12:10:18.481Z,580
2022-08-07T12:12:08.755Z,600
2022-08-07T12:12:30.291Z,592
2022-08-07T12:13:47.965Z,588
2022-08-07T12:14:30.181Z,564
2022-08-07T12:16:36.477Z,560
2022-08-07T12:17:27.330Z,616
2022-08-07T12:18:29.599Z,664
2022-08-07T12:19:35.442Z,676
2022-08-07T12:20:38.042Z,676
2022-08-07T12:22:55.872Z,896
2022-08-07T12:24:37.163Z,1052
2022-08-07T12:26:40.720Z,1228
2022-08-07T12:27:03.887Z,1224
2022-08-07T12:28:36.467Z,1316
2022-08-07T12:29:51.920Z,1508
2022-08-07T12:30:58.412Z,1616
2022-08-07T12:32:20.507Z,1636
2022-08-07T12:32:56.063Z,1596
2022-08-07T12:34:19.292Z,1652
2022-08-07T12:35:02.467Z,1720
2022-08-07T12:36:10.947Z,1728
2022-08-07T12:37:01.151Z,1752
2022-08-07T12:38:57.344Z,1532
2022-08-07T12:40:03.309Z,1472
2022-08-07T12:41:22.070Z,1512
2022-08-07T12:42:37.382Z,1528
2022-08-07T12:44:22.578Z,1676
2022-08-07T12:44:42.973Z,1744
2022-08-07T12:45:42.040Z,1872
2022-08-07T12:46:46.164Z,1828
2022-08-07T12:47:50.185Z,1772
2022-08-07T12:49:51.498Z,1520
2022-08-07T12:51:00.024Z,1364
2022-08-07T12:52:25.154Z,1148
2022-08-07T12:54:03.535Z,1124
2022-08-07T12:55:24.885Z,1048
2022-08-07T12:56:21.609Z,960
2022-08-07T12:57:26.565Z,908
2022-08-07T12:58:18.638Z,896
2022-08-07T12:59:30.426Z,856
2022-08-07T13:00:55.154Z,828
2022-08-07T13:01:19.977Z,836
2022-08-07T13:02:21.864Z,912
2022-08-07T13:04:09.633Z,940
2022-08-07T13:06:54.117Z,1156
2022-08-07T13:08:31.921Z,1048
2022-08-07T13:08:53.473Z,1032
2022-08-07T13:10:58.263Z,1092
2022-08-07T13:11:22.180Z,1108
2022-08-07T13:12:21.856Z,1148
2022-08-07T13:13:57.394Z,1196
2022-08-07T13:14:20.171Z,1188
2022-08-07T13:15:29.447Z,1128
2022-08-07T13:16:22.979Z,1032
2022-08-07T13:17:45.323Z,804
2022-08-07T13:18:41.984Z,676
2022-08-07T13:20:01.335Z,632
2022-08-07T13:20:42.506Z,672
2022-08-07T13:22:35.613Z,900
2022-08-07T13:23:10.041Z,940
2022-08-07T13:24:25.711Z,960
2022-08-07T13:25:36.083Z,856
2022-08-07T13:26:32.371Z,820
2022-08-07T13:27:33.221Z,836
2022-08-07T13:28:36.523Z,860
2022-08-07T13:29:42.353Z,852
2022-08-07T13:31:12.895Z,808
2022-08-07T13:32:06.355Z,820
2022-08-07T13:32:54.495Z,832
2022-08-07T13:34:44.643Z,912
2022-08-07T13:35:15.739Z,956
2022-08-07T13:36:14.643Z,1052
2022-08-07T13:37:25.933Z,1112
2022-08-07T13:38:12.699Z,1172
2022-08-07T13:39:28.165Z,1244
2022-08-07T13:41:27.953Z,1160
2022-08-07T13:42:30.622Z,1016
2022-08-07T13:43:27.819Z,956
2022-08-07T13:44:39.566Z,892
2022-08-07T13:46:41.849Z,896
2022-08-07T13:47:09.908Z,920
2022-08-07T13:48:51.850Z,988
2022-08-07T13:51:27.820Z,948
2022-08-07T13:52:51.997Z,796
2022-08-07T13:54:29.337Z,716
2022-08-07T13:55:34.091Z,684
2022-08-07T13:56:35.242Z,680
2022-08-07T13:57:32.253Z,712
2022-08-07T13:58:37.370Z,696
2022-08-07T13:59:24.300Z,648
2022-08-07T14:00:33.068Z,548
2022-08-07T14:01:27.537Z,512
2022-08-07T14:02:29.552Z,516
2022-08-07T14:04:13.655Z,508
2022-08-07T14:05:09.752Z,464
2022-08-07T14:06:07.539Z,396
2022-08-07T14:07:10.039Z,328
2022-08-07T14:08:13.965Z,292
2022-08-07T14:10:21.845Z,272
2022-08-07T14:11:22.800Z,284
2022-08-07T14:12:27.314Z,328
2022-08-07T14:13:07.103Z,368
2022-08-07T14:14:06.896Z,412
2022-08-07T14:15:07.981Z,428
2022-08-07T14:16:10.438Z,440
2022-08-07T14:18:34.739Z,444
2022-08-07T14:19:03.327Z,440
2022-08-07T14:21:00.659Z,472
2022-08-07T14:22:42.592Z,432
2022-08-07T14:23:14.570Z,424
2022-08-07T14:24:14.978Z,436
2022-08-07T14:25:16.234Z,460
2022-08-07T14:26:33.631Z,464
2022-08-07T14:29:10.721Z,376
2022-08-07T14:30:40.487Z,336
2022-08-07T14:31:42.586Z,324
2022-08-07T14:32:32.170Z,308
2022-08-07T14:33:51.195Z,284
2022-08-07T14:38:24.608Z,332
2022-08-07T14:40:40.975Z,416
2022-08-07T14:42:31.574Z,432
2022-08-07T14:47:26.867Z,452
2022-08-07T14:48:36.718Z,476
2022-08-07T14:50:11.230Z,520
2022-08-07T14:50:31.567Z,524
2022-08-07T14:52:16.851Z,528
2022-08-07T14:52:40.585Z,520
2022-08-07T14:54:47.249Z,488
2022-08-07T14:55:17.575Z,492
2022-08-07T15:02:44.826Z,660
2022-08-07T15:04:11.192Z,672
2022-08-07T15:05:19.932Z,696
2022-08-07T15:12:44.850Z,588
2022-08-07T15:13:49.112Z,572
2022-08-07T15:15:26.525Z,564
2022-08-07T15:19:06.079Z,456
2022-08-07T15:21:44.539Z,492
2022-08-07T15:25:49.044Z,636
2022-08-07T15:26:47.095Z,660
2022-08-07T15:28:55.645Z,652
2022-08-07T15:30:31.350Z,596
2022-08-07T15:34:32.406Z,532
2022-08-07T15:36:13.035Z,520
2022-08-07T15:42:57.757Z,564
2022-08-07T15:44:08.002Z,560
2022-08-07T15:44:57.766Z,544
2022-08-07T15:49:25.322Z,500
2022-08-07T15:52:12.227Z,528
2022-08-07T15:53:21.748Z,524
2022-08-07T15:54:18.027Z,508
2022-08-07T15:55:17.791Z,492
2022-08-07T15:56:17.970Z,480
2022-08-07T15:57:52.695Z,468
2022-08-07T15:58:37.926Z,468
2022-08-07T15:59:49.751Z,472
2022-08-07T16:00:45.648Z,464
2022-08-07T16:01:45.124Z,452
2022-08-07T16:02:38.153Z,444
2022-08-07T16:04:21.291Z,440
2022-08-07T16:05:23.044Z,448
2022-08-07T16:06:11.545Z,460
2022-08-07T16:08:45.560Z,484
2022-08-07T16:09:04.652Z,480
2022-08-07T16:10:11.732Z,480
2022-08-07T16:11:17.330Z,476
2022-08-07T16:12:12.085Z,468
2022-08-07T16:14:03.635Z,440
2022-08-07T16:14:25.056Z,432
2022-08-07T16:16:56.925Z,424
2022-08-07T16:18:14.393Z,420
2022-08-07T16:19:14.943Z,404
2022-08-07T16:20:11.128Z,388
2022-08-07T16:23:05.166Z,380
2022-08-07T16:24:40.435Z,384
2022-08-07T16:25:22.907Z,388
2022-08-07T16:26:14.335Z,384
2022-08-07T16:27:26.246Z,376
2022-08-07T16:30:29.909Z,336
2022-08-07T16:32:05.959Z,316
2022-08-07T16:34:30.052Z,280
2022-08-07T16:36:18.357Z,256
2022-08-07T16:38:12.879Z,220
2022-08-07T16:39:33.904Z,200
2022-08-07T16:40:22.956Z,192
2022-08-07T16:41:15.362Z,184
2022-08-07T16:42:14.879Z,188
2022-08-07T16:43:10.795Z,192
2022-08-07T16:46:21.523Z,204
2022-08-07T16:48:02.814Z,204
2022-08-07T16:51:51.993Z,200
2022-08-07T16:54:19.400Z,200
2022-08-07T16:55:26.963Z,196
2022-08-07T16:56:28.624Z,196
2022-08-07T16:58:21.271Z,196
2022-08-07T16:59:25.403Z,200
2022-08-07T17:00:14.969Z,200
2022-08-07T17:01:15.746Z,200
2022-08-07T17:02:10.777Z,196
2022-08-07T17:03:47.374Z,196
2022-08-07T17:04:34.929Z,196
2022-08-07T17:06:51.580Z,212
2022-08-07T17:08:14.809Z,216
2022-08-07T17:10:35.520Z,224
2022-08-07T17:11:05.593Z,228
2022-08-07T17:12:45.507Z,240
2022-08-07T17:13:09.009Z,244
2022-08-07T17:14:30.831Z,252